sensor_id;sensor_type;location;lat;lon;timestamp;pressure;altitude;pressure_sealevel;temperature;humidity
15229;BME280;7717;47.792;12.076;2022-10-16T00:02:22;96221.94;;;14.39;100.00
15229;BME280;7717;47.792;12.076;2022-10-16T00:04:48;96228.34;;;14.66;100.00
15229;BME280;7717;47.792;12.076;2022-10-16T00:07:13;96229.69;;;14.83;100.00
15229;BME280;7717;47.792;12.076;2022-10-16T00:09:40;96231.63;;;14.73;100.00
15229;BME280;7717;47.792;12.076;2022-10-16T00:12:05;96222.28;;;14.67;100.00
15229;BME280;7717;47.792;12.076;2022-10-16T00:14:32;96228.44;;;14.60;100.00
15229;BME280;7717;47.792;12.076;2022-10-16T00:16:57;96237.38;;;14.40;100.00
15229;BME280;7717;47.792;12.076;2022-10-16T00:19:22;96235.34;;;14.11;100.00
15229;BME280;7717;47.792;12.076;2022-10-16T00:21:48;96245.06;;;13.94;100.00
15229;BME280;7717;47.792;12.076;2022-10-16T00:24:13;96246.44;;;13.62;100.00
15229;BME280;7717;47.792;12.076;2022-10-16T00:26:39;96255.44;;;13.31;100.00
15229;BME280;7717;47.792;12.076;2022-10-16T00:29:07;96260.81;;;13.16;100.00
15229;BME280;7717;47.792;12.076;2022-10-16T00:31:32;96255.91;;;12.96;100.00
15229;BME280;7717;47.792;12.076;2022-10-16T00:33:59;96261.13;;;12.91;100.00
15229;BME280;7717;47.792;12.076;2022-10-16T00:36:26;96250.06;;;12.85;100.00
15229;BME280;7717;47.792;12.076;2022-10-16T00:38:54;96260.41;;;12.80;100.00
15229;BME280;7717;47.792;12.076;2022-10-16T00:41:20;96251.19;;;12.62;100.00
15229;BME280;7717;47.792;12.076;2022-10-16T00:43:49;96259.75;;;12.59;100.00
15229;BME280;7717;47.792;12.076;2022-10-16T00:46:24;96255.16;;;12.89;100.00
15229;BME280;7717;47.792;12.076;2022-10-16T00:49:11;96250.91;;;12.85;100.00
15229;BME280;7717;47.792;12.076;2022-10-16T00:51:43;96255.66;;;13.16;100.00
15229;BME280;7717;47.792;12.076;2022-10-16T00:54:16;96258.13;;;13.81;100.00
15229;BME280;7717;47.792;12.076;2022-10-16T00:56:43;96261.84;;;14.16;100.00
15229;BME280;7717;47.792;12.076;2022-10-16T00:59:20;96261.69;;;14.26;100.00
15229;BME280;7717;47.792;12.076;2022-10-16T01:01:48;96266.88;;;14.22;100.00
15229;BME280;7717;47.792;12.076;2022-10-16T01:04:14;96259.34;;;14.12;100.00
15229;BME280;7717;47.792;12.076;2022-10-16T01:09:24;96254.50;;;14.43;100.00
15229;BME280;7717;47.792;12.076;2022-10-16T01:12:17;96252.94;;;14.33;100.00
15229;BME280;7717;47.792;12.076;2022-10-16T01:14:57;96249.75;;;14.68;100.00
15229;BME280;7717;47.792;12.076;2022-10-16T01:17:49;96243.00;;;14.61;100.00
15229;BME280;7717;47.792;12.076;2022-10-16T01:20:35;96244.88;;;14.97;100.00
15229;BME280;7717;47.792;12.076;2022-10-16T01:29:07;96249.53;;;14.79;100.00
15229;BME280;7717;47.792;12.076;2022-10-16T01:31:36;96245.47;;;14.67;100.00
15229;BME280;7717;47.792;12.076;2022-10-16T01:34:07;96241.03;;;14.75;100.00
15229;BME280;7717;47.792;12.076;2022-10-16T01:36:47;96244.25;;;14.85;100.00
15229;BME280;7717;47.792;12.076;2022-10-16T01:39:14;96239.25;;;14.78;100.00
15229;BME280;7717;47.792;12.076;2022-10-16T01:41:48;96240.38;;;14.64;100.00
15229;BME280;7717;47.792;12.076;2022-10-16T01:44:22;96244.94;;;14.93;100.00
15229;BME280;7717;47.792;12.076;2022-10-16T01:46:51;96254.78;;;14.74;100.00
15229;BME280;7717;47.792;12.076;2022-10-16T01:49:21;96245.56;;;14.63;100.00
15229;BME280;7717;47.792;12.076;2022-10-16T01:51:51;96257.38;;;14.73;100.00
15229;BME280;7717;47.792;12.076;2022-10-16T01:54:20;96259.81;;;14.81;100.00
15229;BME280;7717;47.792;12.076;2022-10-16T01:56:47;96265.09;;;14.74;100.00
15229;BME280;7717;47.792;12.076;2022-10-16T01:59:17;96261.34;;;14.91;100.00
15229;BME280;7717;47.792;12.076;2022-10-16T02:01:48;96254.63;;;14.82;100.00
15229;BME280;7717;47.792;12.076;2022-10-16T02:04:42;96255.31;;;14.90;100.00
15229;BME280;7717;47.792;12.076;2022-10-16T02:07:08;96266.72;;;14.79;100.00
15229;BME280;7717;47.792;12.076;2022-10-16T02:09:34;96264.84;;;14.87;100.00
15229;BME280;7717;47.792;12.076;2022-10-16T02:12:08;96269.31;;;14.79;100.00
15229;BME280;7717;47.792;12.076;2022-10-16T02:14:37;96270.19;;;14.78;100.00
15229;BME280;7717;47.792;12.076;2022-10-16T02:17:13;96274.44;;;14.80;100.00
15229;BME280;7717;47.792;12.076;2022-10-16T02:19:39;96272.66;;;14.82;100.00
15229;BME280;7717;47.792;12.076;2022-10-16T02:22:08;96272.47;;;14.91;100.00
15229;BME280;7717;47.792;12.076;2022-10-16T02:24:42;96275.41;;;14.74;100.00
15229;BME280;7717;47.792;12.076;2022-10-16T02:27:12;96272.41;;;14.94;100.00
15229;BME280;7717;47.792;12.076;2022-10-16T02:29:47;96285.53;;;14.84;100.00
15229;BME280;7717;47.792;12.076;2022-10-16T02:32:17;96265.00;;;14.79;100.00
15229;BME280;7717;47.792;12.076;2022-10-16T02:34:45;96268.34;;;14.83;100.00
15229;BME280;7717;47.792;12.076;2022-10-16T02:37:13;96268.63;;;14.69;100.00
15229;BME280;7717;47.792;12.076;2022-10-16T02:39:40;96275.53;;;14.67;100.00
15229;BME280;7717;47.792;12.076;2022-10-16T02:42:11;96266.06;;;14.67;100.00
15229;BME280;7717;47.792;12.076;2022-10-16T02:44:36;96276.16;;;14.80;100.00
15229;BME280;7717;47.792;12.076;2022-10-16T02:47:02;96266.34;;;14.99;100.00
15229;BME280;7717;47.792;12.076;2022-10-16T02:49:27;96263.81;;;14.96;100.00
15229;BME280;7717;47.792;12.076;2022-10-16T02:51:52;96258.84;;;14.86;100.00
15229;BME280;7717;47.792;12.076;2022-10-16T02:54:18;96283.44;;;15.01;100.00
15229;BME280;7717;47.792;12.076;2022-10-16T02:56:46;96274.91;;;14.99;100.00
15229;BME280;7717;47.792;12.076;2022-10-16T02:59:12;96274.16;;;14.94;100.00
15229;BME280;7717;47.792;12.076;2022-10-16T03:01:37;96270.69;;;14.95;100.00
15229;BME280;7717;47.792;12.076;2022-10-16T03:04:03;96289.44;;;15.02;100.00
15229;BME280;7717;47.792;12.076;2022-10-16T03:06:28;96283.47;;;15.00;100.00
15229;BME280;7717;47.792;12.076;2022-10-16T03:08:53;96274.25;;;14.89;100.00
15229;BME280;7717;47.792;12.076;2022-10-16T03:11:19;96268.00;;;15.00;100.00
15229;BME280;7717;47.792;12.076;2022-10-16T03:13:44;96272.91;;;15.12;100.00
15229;BME280;7717;47.792;12.076;2022-10-16T03:16:09;96280.91;;;15.00;100.00
15229;BME280;7717;47.792;12.076;2022-10-16T03:18:35;96282.88;;;14.87;100.00
15229;BME280;7717;47.792;12.076;2022-10-16T03:21:00;96278.25;;;15.03;100.00
15229;BME280;7717;47.792;12.076;2022-10-16T03:23:25;96281.69;;;15.03;100.00
15229;BME280;7717;47.792;12.076;2022-10-16T03:25:51;96270.66;;;14.97;100.00
15229;BME280;7717;47.792;12.076;2022-10-16T03:28:16;96283.69;;;14.89;100.00
15229;BME280;7717;47.792;12.076;2022-10-16T03:30:43;96280.25;;;14.90;100.00
15229;BME280;7717;47.792;12.076;2022-10-16T03:33:08;96260.59;;;14.84;100.00
15229;BME280;7717;47.792;12.076;2022-10-16T03:35:33;96282.13;;;14.82;100.00
15229;BME280;7717;47.792;12.076;2022-10-16T03:37:59;96296.00;;;14.74;100.00
15229;BME280;7717;47.792;12.076;2022-10-16T03:40:25;96284.06;;;14.69;100.00
15229;BME280;7717;47.792;12.076;2022-10-16T03:42:50;96287.72;;;14.57;100.00
15229;BME280;7717;47.792;12.076;2022-10-16T03:45:16;96287.81;;;14.52;100.00
15229;BME280;7717;47.792;12.076;2022-10-16T03:47:41;96269.66;;;14.60;100.00
15229;BME280;7717;47.792;12.076;2022-10-16T03:50:07;96284.41;;;14.52;100.00
15229;BME280;7717;47.792;12.076;2022-10-16T03:52:33;96282.84;;;14.42;100.00
15229;BME280;7717;47.792;12.076;2022-10-16T03:54:58;96281.16;;;14.39;100.00
15229;BME280;7717;47.792;12.076;2022-10-16T03:57:24;96283.84;;;14.33;100.00
15229;BME280;7717;47.792;12.076;2022-10-16T03:59:49;96296.53;;;14.44;100.00
15229;BME280;7717;47.792;12.076;2022-10-16T04:02:14;96287.41;;;14.27;100.00
15229;BME280;7717;47.792;12.076;2022-10-16T04:04:40;96291.56;;;14.34;100.00
15229;BME280;7717;47.792;12.076;2022-10-16T04:07:05;96291.56;;;14.33;100.00
15229;BME280;7717;47.792;12.076;2022-10-16T04:09:30;96292.28;;;14.43;100.00
15229;BME280;7717;47.792;12.076;2022-10-16T04:11:56;96294.75;;;14.49;100.00
15229;BME280;7717;47.792;12.076;2022-10-16T04:14:21;96297.28;;;14.50;100.00
15229;BME280;7717;47.792;12.076;2022-10-16T04:16:47;96293.03;;;14.48;100.00
15229;BME280;7717;47.792;12.076;2022-10-16T04:19:12;96303.31;;;14.49;100.00
15229;BME280;7717;47.792;12.076;2022-10-16T04:21:38;96299.28;;;14.34;100.00
15229;BME280;7717;47.792;12.076;2022-10-16T04:24:03;96293.31;;;14.32;100.00
15229;BME280;7717;47.792;12.076;2022-10-16T04:26:29;96285.72;;;14.25;100.00
15229;BME280;7717;47.792;12.076;2022-10-16T04:28:55;96296.75;;;14.31;100.00
15229;BME280;7717;47.792;12.076;2022-10-16T04:31:20;96303.56;;;14.35;100.00
15229;BME280;7717;47.792;12.076;2022-10-16T04:33:46;96308.03;;;14.26;100.00
15229;BME280;7717;47.792;12.076;2022-10-16T04:36:11;96313.28;;;14.19;100.00
15229;BME280;7717;47.792;12.076;2022-10-16T04:38:37;96322.97;;;14.03;100.00
15229;BME280;7717;47.792;12.076;2022-10-16T04:41:03;96317.78;;;14.07;100.00
15229;BME280;7717;47.792;12.076;2022-10-16T04:43:29;96319.63;;;13.98;100.00
15229;BME280;7717;47.792;12.076;2022-10-16T04:45:54;96316.13;;;14.02;100.00
15229;BME280;7717;47.792;12.076;2022-10-16T04:48:20;96329.03;;;13.99;100.00
15229;BME280;7717;47.792;12.076;2022-10-16T04:50:45;96318.78;;;13.98;100.00
15229;BME280;7717;47.792;12.076;2022-10-16T04:53:11;96321.22;;;14.06;100.00
15229;BME280;7717;47.792;12.076;2022-10-16T04:55:36;96319.50;;;14.04;100.00
15229;BME280;7717;47.792;12.076;2022-10-16T04:58:03;96305.06;;;13.97;100.00
15229;BME280;7717;47.792;12.076;2022-10-16T05:00:28;96319.56;;;14.01;100.00
15229;BME280;7717;47.792;12.076;2022-10-16T05:02:53;96319.50;;;14.04;100.00
15229;BME280;7717;47.792;12.076;2022-10-16T05:05:19;96329.81;;;14.04;100.00
15229;BME280;7717;47.792;12.076;2022-10-16T05:07:45;96318.91;;;13.89;100.00
15229;BME280;7717;47.792;12.076;2022-10-16T05:10:11;96308.75;;;13.79;100.00
15229;BME280;7717;47.792;12.076;2022-10-16T05:12:36;96315.47;;;13.91;100.00
15229;BME280;7717;47.792;12.076;2022-10-16T05:15:02;96309.38;;;13.95;100.00
15229;BME280;7717;47.792;12.076;2022-10-16T05:17:28;96326.06;;;14.26;100.00
15229;BME280;7717;47.792;12.076;2022-10-16T05:19:53;96315.69;;;14.30;100.00
15229;BME280;7717;47.792;12.076;2022-10-16T05:22:19;96310.44;;;14.35;100.00
15229;BME280;7717;47.792;12.076;2022-10-16T05:24:44;96308.56;;;14.45;100.00
15229;BME280;7717;47.792;12.076;2022-10-16T05:27:10;96309.19;;;14.56;100.00
15229;BME280;7717;47.792;12.076;2022-10-16T05:29:36;96295.88;;;14.32;100.00
15229;BME280;7717;47.792;12.076;2022-10-16T05:32:05;96305.09;;;14.46;100.00
15229;BME280;7717;47.792;12.076;2022-10-16T05:34:30;96304.25;;;14.45;100.00
15229;BME280;7717;47.792;12.076;2022-10-16T05:36:56;96303.28;;;14.51;100.00
15229;BME280;7717;47.792;12.076;2022-10-16T05:39:21;96303.44;;;14.43;100.00
15229;BME280;7717;47.792;12.076;2022-10-16T05:41:49;96290.72;;;14.34;100.00
15229;BME280;7717;47.792;12.076;2022-10-16T05:44:14;96312.00;;;14.44;100.00
15229;BME280;7717;47.792;12.076;2022-10-16T05:46:40;96301.63;;;14.47;100.00
15229;BME280;7717;47.792;12.076;2022-10-16T05:49:05;96310.84;;;14.62;100.00
15229;BME280;7717;47.792;12.076;2022-10-16T05:51:30;96302.13;;;14.67;100.00
15229;BME280;7717;47.792;12.076;2022-10-16T05:53:56;96299.38;;;14.78;100.00
15229;BME280;7717;47.792;12.076;2022-10-16T05:56:21;96301.38;;;14.64;100.00
15229;BME280;7717;47.792;12.076;2022-10-16T05:58:46;96290.78;;;14.78;100.00
15229;BME280;7717;47.792;12.076;2022-10-16T06:01:14;96294.63;;;15.00;100.00
15229;BME280;7717;47.792;12.076;2022-10-16T06:03:41;96292.00;;;15.03;100.00
15229;BME280;7717;47.792;12.076;2022-10-16T06:06:20;96296.22;;;15.07;100.00
15229;BME280;7717;47.792;12.076;2022-10-16T06:08:47;96300.63;;;15.02;100.00
15229;BME280;7717;47.792;12.076;2022-10-16T06:11:15;96307.00;;;15.25;100.00
15229;BME280;7717;47.792;12.076;2022-10-16T06:13:41;96316.63;;;15.18;100.00
15229;BME280;7717;47.792;12.076;2022-10-16T06:16:09;96317.31;;;15.25;100.00
15229;BME280;7717;47.792;12.076;2022-10-16T06:18:35;96334.38;;;15.32;100.00
15229;BME280;7717;47.792;12.076;2022-10-16T06:21:10;96340.13;;;15.45;100.00
15229;BME280;7717;47.792;12.076;2022-10-16T06:23:36;96340.63;;;15.20;100.00
15229;BME280;7717;47.792;12.076;2022-10-16T06:26:07;96334.09;;;15.46;100.00
15229;BME280;7717;47.792;12.076;2022-10-16T06:28:33;96343.41;;;15.09;100.00
15229;BME280;7717;47.792;12.076;2022-10-16T06:31:00;96349.09;;;15.28;100.00
15229;BME280;7717;47.792;12.076;2022-10-16T06:33:25;96351.63;;;15.30;100.00
15229;BME280;7717;47.792;12.076;2022-10-16T06:35:51;96358.81;;;15.14;100.00
15229;BME280;7717;47.792;12.076;2022-10-16T06:38:16;96365.75;;;15.10;100.00
15229;BME280;7717;47.792;12.076;2022-10-16T06:40:41;96363.97;;;15.12;100.00
15229;BME280;7717;47.792;12.076;2022-10-16T06:43:10;96374.25;;;15.16;100.00
15229;BME280;7717;47.792;12.076;2022-10-16T06:45:36;96370.75;;;15.18;100.00
15229;BME280;7717;47.792;12.076;2022-10-16T06:48:01;96375.94;;;15.17;100.00
15229;BME280;7717;47.792;12.076;2022-10-16T06:50:26;96371.53;;;15.22;100.00
15229;BME280;7717;47.792;12.076;2022-10-16T06:52:52;96378.91;;;14.97;100.00
15229;BME280;7717;47.792;12.076;2022-10-16T06:55:17;96365.22;;;14.93;100.00
15229;BME280;7717;47.792;12.076;2022-10-16T06:57:43;96380.38;;;15.10;100.00
15229;BME280;7717;47.792;12.076;2022-10-16T07:00:09;96389.81;;;15.09;100.00
15229;BME280;7717;47.792;12.076;2022-10-16T07:02:35;96379.00;;;15.36;100.00
15229;BME280;7717;47.792;12.076;2022-10-16T07:05:00;96384.78;;;15.47;100.00
15229;BME280;7717;47.792;12.076;2022-10-16T07:07:26;96393.94;;;15.62;100.00
15229;BME280;7717;47.792;12.076;2022-10-16T07:09:52;96399.97;;;15.61;100.00
15229;BME280;7717;47.792;12.076;2022-10-16T07:12:17;96402.44;;;15.67;100.00
15229;BME280;7717;47.792;12.076;2022-10-16T07:14:43;96394.66;;;15.69;100.00
15229;BME280;7717;47.792;12.076;2022-10-16T07:17:08;96394.84;;;15.59;100.00
15229;BME280;7717;47.792;12.076;2022-10-16T07:19:33;96406.56;;;15.76;100.00
15229;BME280;7717;47.792;12.076;2022-10-16T07:21:59;96377.50;;;15.68;100.00
15229;BME280;7717;47.792;12.076;2022-10-16T07:24:24;96393.56;;;15.82;100.00
15229;BME280;7717;47.792;12.076;2022-10-16T07:26:50;96393.31;;;15.93;100.00
15229;BME280;7717;47.792;12.076;2022-10-16T07:29:19;96403.53;;;15.97;100.00
15229;BME280;7717;47.792;12.076;2022-10-16T07:31:46;96406.53;;;16.16;100.00
15229;BME280;7717;47.792;12.076;2022-10-16T07:34:12;96406.06;;;16.00;100.00
15229;BME280;7717;47.792;12.076;2022-10-16T07:36:38;96410.44;;;16.33;100.00
15229;BME280;7717;47.792;12.076;2022-10-16T07:39:04;96409.97;;;16.17;100.00
15229;BME280;7717;47.792;12.076;2022-10-16T07:41:29;96410.00;;;16.15;100.00
15229;BME280;7717;47.792;12.076;2022-10-16T07:43:57;96424.13;;;16.38;100.00
15229;BME280;7717;47.792;12.076;2022-10-16T07:46:25;96422.50;;;16.34;100.00
15229;BME280;7717;47.792;12.076;2022-10-16T07:48:51;96415.81;;;16.24;100.00
15229;BME280;7717;47.792;12.076;2022-10-16T07:51:22;96414.25;;;16.18;100.00
15229;BME280;7717;47.792;12.076;2022-10-16T07:53:48;96425.41;;;16.20;100.00
15229;BME280;7717;47.792;12.076;2022-10-16T07:56:15;96424.84;;;16.43;100.00
15229;BME280;7717;47.792;12.076;2022-10-16T07:58:41;96419.41;;;16.55;100.00
15229;BME280;7717;47.792;12.076;2022-10-16T08:01:12;96403.06;;;16.55;100.00
15229;BME280;7717;47.792;12.076;2022-10-16T08:03:42;96430.47;;;16.61;100.00
15229;BME280;7717;47.792;12.076;2022-10-16T08:06:08;96422.84;;;16.54;100.00
15229;BME280;7717;47.792;12.076;2022-10-16T08:08:34;96423.53;;;16.61;100.00
15229;BME280;7717;47.792;12.076;2022-10-16T08:11:00;96417.38;;;16.67;100.00
15229;BME280;7717;47.792;12.076;2022-10-16T08:13:28;96423.56;;;16.97;100.00
15229;BME280;7717;47.792;12.076;2022-10-16T08:15:54;96427.25;;;16.85;100.00
15229;BME280;7717;47.792;12.076;2022-10-16T08:18:19;96426.59;;;17.13;100.00
15229;BME280;7717;47.792;12.076;2022-10-16T08:20:45;96416.25;;;17.13;100.00
15229;BME280;7717;47.792;12.076;2022-10-16T08:23:11;96435.13;;;17.15;100.00
15229;BME280;7717;47.792;12.076;2022-10-16T08:25:37;96416.03;;;17.21;100.00
15229;BME280;7717;47.792;12.076;2022-10-16T08:28:08;96429.69;;;17.57;100.00
15229;BME280;7717;47.792;12.076;2022-10-16T08:30:33;96429.16;;;17.76;100.00
15229;BME280;7717;47.792;12.076;2022-10-16T08:32:59;96442.06;;;18.07;100.00
15229;BME280;7717;47.792;12.076;2022-10-16T08:35:25;96442.38;;;17.96;100.00
15229;BME280;7717;47.792;12.076;2022-10-16T08:37:50;96440.84;;;17.89;100.00
15229;BME280;7717;47.792;12.076;2022-10-16T08:40:20;96431.47;;;17.85;100.00
15229;BME280;7717;47.792;12.076;2022-10-16T08:49:11;96416.03;;;20.78;100.00
15229;BME280;7717;47.792;12.076;2022-10-16T08:51:39;96413.69;;;21.73;100.00
15229;BME280;7717;47.792;12.076;2022-10-16T08:54:15;96427.16;;;22.02;100.00
15229;BME280;7717;47.792;12.076;2022-10-16T08:56:43;96421.63;;;22.81;99.34
15229;BME280;7717;47.792;12.076;2022-10-16T08:59:13;96390.16;;;23.53;91.69
15229;BME280;7717;47.792;12.076;2022-10-16T09:01:44;96407.97;;;23.62;94.05
15229;BME280;7717;47.792;12.076;2022-10-16T09:06:57;96399.09;;;24.14;90.58
15229;BME280;7717;47.792;12.076;2022-10-16T09:12:31;96371.53;;;24.08;85.95
15229;BME280;7717;47.792;12.076;2022-10-16T09:18:02;96357.75;;;24.97;81.51
15229;BME280;7717;47.792;12.076;2022-10-16T09:20:42;96421.63;;;25.09;87.04
15229;BME280;7717;47.792;12.076;2022-10-16T09:23:17;96424.59;;;25.33;84.75
15229;BME280;7717;47.792;12.076;2022-10-16T09:25:46;96431.97;;;25.84;84.49
15229;BME280;7717;47.792;12.076;2022-10-16T09:28:13;96466.81;;;25.58;85.74
15229;BME280;7717;47.792;12.076;2022-10-16T09:30:38;96479.75;;;24.54;85.66
15229;BME280;7717;47.792;12.076;2022-10-16T09:33:05;96427.16;;;25.19;82.38
15229;BME280;7717;47.792;12.076;2022-10-16T09:35:33;96460.19;;;24.29;83.83
15229;BME280;7717;47.792;12.076;2022-10-16T09:38:01;96402.28;;;24.82;80.06
15229;BME280;7717;47.792;12.076;2022-10-16T09:40:36;96508.00;;;25.41;86.67
15229;BME280;7717;47.792;12.076;2022-10-16T09:48:28;96413.19;;;27.01;76.91
15229;BME280;7717;47.792;12.076;2022-10-16T09:51:13;96391.38;;;26.73;75.41
15229;BME280;7717;47.792;12.076;2022-10-16T09:53:45;96375.16;;;27.58;74.47
15229;BME280;7717;47.792;12.076;2022-10-16T09:56:21;96395.63;;;26.89;73.85
15229;BME280;7717;47.792;12.076;2022-10-16T09:58:55;96379.03;;;26.88;73.62
15229;BME280;7717;47.792;12.076;2022-10-16T10:01:26;96439.34;;;27.56;76.15
15229;BME280;7717;47.792;12.076;2022-10-16T10:03:59;96431.19;;;27.97;75.90
15229;BME280;7717;47.792;12.076;2022-10-16T10:06:56;96347.66;;;28.36;70.27
15229;BME280;7717;47.792;12.076;2022-10-16T10:09:29;96492.97;;;27.66;79.35
15229;BME280;7717;47.792;12.076;2022-10-16T10:12:04;96438.53;;;27.92;74.87
15229;BME280;7717;47.792;12.076;2022-10-16T10:14:31;96463.28;;;27.77;76.03
15229;BME280;7717;47.792;12.076;2022-10-16T10:19:37;96393.78;;;27.55;71.94
15229;BME280;7717;47.792;12.076;2022-10-16T10:22:15;96372.44;;;28.34;70.47
15229;BME280;7717;47.792;12.076;2022-10-16T10:24:42;96493.53;;;29.19;78.75
15229;BME280;7717;47.792;12.076;2022-10-16T10:27:14;96391.84;;;29.73;71.49
15229;BME280;7717;47.792;12.076;2022-10-16T10:29:47;96483.19;;;28.81;77.43
15229;BME280;7717;47.792;12.076;2022-10-16T10:41:32;96323.13;;;29.97;66.95
15229;BME280;7717;47.792;12.076;2022-10-16T10:46:33;96316.28;;;29.95;66.32
15229;BME280;7717;47.792;12.076;2022-10-16T10:54:15;96365.72;;;29.82;68.53
15229;BME280;7717;47.792;12.076;2022-10-16T10:59:32;96295.94;;;30.07;63.72
15229;BME280;7717;47.792;12.076;2022-10-16T11:02:31;96305.56;;;29.41;64.07
15229;BME280;7717;47.792;12.076;2022-10-16T11:07:54;96436.72;;;29.62;71.73
15229;BME280;7717;47.792;12.076;2022-10-16T11:10:23;96443.75;;;30.29;72.48
15229;BME280;7717;47.792;12.076;2022-10-16T11:13:10;96329.66;;;30.14;65.30
15229;BME280;7717;47.792;12.076;2022-10-16T11:15:41;96381.41;;;31.45;69.25
15229;BME280;7717;47.792;12.076;2022-10-16T11:18:38;96344.13;;;29.88;66.06
15229;BME280;7717;47.792;12.076;2022-10-16T11:21:10;96412.59;;;29.78;70.30
15229;BME280;7717;47.792;12.076;2022-10-16T11:26:22;96323.97;;;30.42;64.58
15229;BME280;7717;47.792;12.076;2022-10-16T11:28:50;96312.78;;;30.38;64.96
15229;BME280;7717;47.792;12.076;2022-10-16T11:31:36;96244.75;;;31.75;60.90
15229;BME280;7717;47.792;12.076;2022-10-16T11:34:07;96403.78;;;31.41;69.98
15229;BME280;7717;47.792;12.076;2022-10-16T11:36:45;96254.31;;;31.16;61.26
15229;BME280;7717;47.792;12.076;2022-10-16T11:39:18;96399.50;;;31.19;69.85
15229;BME280;7717;47.792;12.076;2022-10-16T11:41:59;96273.44;;;30.77;62.06
15229;BME280;7717;47.792;12.076;2022-10-16T11:47:09;96297.66;;;30.40;62.71
15229;BME280;7717;47.792;12.076;2022-10-16T11:49:38;96406.16;;;31.13;69.33
15229;BME280;7717;47.792;12.076;2022-10-16T11:52:23;96403.78;;;31.41;69.47
15229;BME280;7717;47.792;12.076;2022-10-16T11:55:13;96400.25;;;32.43;69.41
15229;BME280;7717;47.792;12.076;2022-10-16T11:57:42;96255.91;;;32.57;60.44
15229;BME280;7717;47.792;12.076;2022-10-16T12:00:40;96219.69;;;31.29;59.10
15229;BME280;7717;47.792;12.076;2022-10-16T12:06:23;96221.31;;;31.51;58.93
15229;BME280;7717;47.792;12.076;2022-10-16T12:08:51;96311.81;;;33.50;62.92
15229;BME280;7717;47.792;12.076;2022-10-16T12:13:49;96366.16;;;33.46;67.44
15229;BME280;7717;47.792;12.076;2022-10-16T12:18:44;96316.13;;;33.51;63.41
15229;BME280;7717;47.792;12.076;2022-10-16T12:21:12;96366.09;;;32.20;66.06
15229;BME280;7717;47.792;12.076;2022-10-16T12:23:49;96208.28;;;31.98;57.08
15229;BME280;7717;47.792;12.076;2022-10-16T12:26:24;96227.91;;;32.05;57.86
15229;BME280;7717;47.792;12.076;2022-10-16T12:28:50;96353.06;;;33.34;65.54
15229;BME280;7717;47.792;12.076;2022-10-16T12:31:16;96348.53;;;33.54;65.24
15229;BME280;7717;47.792;12.076;2022-10-16T12:34:01;96196.84;;;32.37;56.35
15229;BME280;7717;47.792;12.076;2022-10-16T12:36:32;96195.63;;;33.44;56.07
15229;BME280;7717;47.792;12.076;2022-10-16T12:38:59;96268.69;;;35.18;61.10
15229;BME280;7717;47.792;12.076;2022-10-16T12:41:35;96178.56;;;34.63;54.98
15229;BME280;7717;47.792;12.076;2022-10-16T12:44:04;96297.44;;;33.70;62.71
15229;BME280;7717;47.792;12.076;2022-10-16T12:51:40;96295.22;;;33.66;60.61
15229;BME280;7717;47.792;12.076;2022-10-16T12:54:15;96196.22;;;33.38;54.82
15229;BME280;7717;47.792;12.076;2022-10-16T13:02:18;96238.00;;;33.35;57.47
15229;BME280;7717;47.792;12.076;2022-10-16T13:07:42;96183.91;;;33.18;54.08
15229;BME280;7717;47.792;12.076;2022-10-16T13:10:21;96270.72;;;33.26;57.92
15229;BME280;7717;47.792;12.076;2022-10-16T13:15:53;96230.13;;;33.71;55.69
15229;BME280;7717;47.792;12.076;2022-10-16T13:18:31;96222.13;;;33.16;55.45
15229;BME280;7717;47.792;12.076;2022-10-16T13:21:10;96322.69;;;34.30;61.87
15229;BME280;7717;47.792;12.076;2022-10-16T13:23:55;96176.81;;;35.57;53.16
15229;BME280;7717;47.792;12.076;2022-10-16T13:26:39;96308.50;;;35.71;60.98
15229;BME280;7717;47.792;12.076;2022-10-16T13:29:08;96255.63;;;35.07;56.71
15229;BME280;7717;47.792;12.076;2022-10-16T13:31:37;96267.53;;;34.94;56.96
15229;BME280;7717;47.792;12.076;2022-10-16T13:34:03;96357.59;;;33.52;63.05
15229;BME280;7717;47.792;12.076;2022-10-16T13:36:42;96270.00;;;34.25;56.78
15229;BME280;7717;47.792;12.076;2022-10-16T13:39:18;96271.94;;;34.77;56.91
15229;BME280;7717;47.792;12.076;2022-10-16T13:41:45;96267.78;;;35.86;58.25
15229;BME280;7717;47.792;12.076;2022-10-16T13:44:18;96210.47;;;35.58;53.23
15229;BME280;7717;47.792;12.076;2022-10-16T13:46:45;96320.34;;;35.07;60.25
15229;BME280;7717;47.792;12.076;2022-10-16T13:49:16;96285.44;;;34.66;57.68
15229;BME280;7717;47.792;12.076;2022-10-16T13:51:54;96233.19;;;34.57;54.59
15229;BME280;7717;47.792;12.076;2022-10-16T13:54:19;96302.69;;;34.80;59.02
15229;BME280;7717;47.792;12.076;2022-10-16T13:56:45;96320.84;;;34.49;60.46
15229;BME280;7717;47.792;12.076;2022-10-16T13:59:32;96165.72;;;35.19;50.95
15229;BME280;7717;47.792;12.076;2022-10-16T14:01:58;96310.78;;;34.34;58.93
15229;BME280;7717;47.792;12.076;2022-10-16T14:04:29;96321.28;;;33.05;58.66
15229;BME280;7717;47.792;12.076;2022-10-16T14:06:57;96364.28;;;32.99;62.70
15229;BME280;7717;47.792;12.076;2022-10-16T14:09:27;96267.47;;;33.32;55.58
15229;BME280;7717;47.792;12.076;2022-10-16T14:11:57;96275.94;;;32.98;55.81
15229;BME280;7717;47.792;12.076;2022-10-16T14:14:24;96337.09;;;33.44;60.26
15229;BME280;7717;47.792;12.076;2022-10-16T14:16:52;96297.53;;;34.06;58.62
15229;BME280;7717;47.792;12.076;2022-10-16T14:19:22;96297.28;;;33.54;57.85
15229;BME280;7717;47.792;12.076;2022-10-16T14:21:50;96287.22;;;33.76;57.13
15229;BME280;7717;47.792;12.076;2022-10-16T14:24:32;96213.69;;;33.58;52.26
15229;BME280;7717;47.792;12.076;2022-10-16T14:26:59;96359.97;;;32.88;61.25
15229;BME280;7717;47.792;12.076;2022-10-16T14:29:27;96333.31;;;32.99;59.80